Time;durP1;ratioP1;P1;durP2;ratioP2;P2;SDS_P1;SDS_P2;PMS_P1;PMS_P2;Temp;Humidity;BMP_temperature;BMP_pressure;BME280_temperature;BME280_humidity;BME280_pressure;Samples;Min_cycle;Max_cycle;Signal;HPM_P1;HPM_P2
2022/02/18 00:01:59;;;;;;;19.17;3.80;;;10.30;75.80;;;;;;4997983;28;20186;-89
2022/02/18 00:04:25;;;;;;;23.85;5.53;;;10.50;75.80;;;;;;5014197;28;20221;-89
2022/02/18 00:06:52;;;;;;;24.23;4.20;;;10.50;75.60;;;;;;5018660;28;20181;-89
2022/02/18 00:09:18;;;;;;;20.35;4.95;;;10.50;75.80;;;;;;4998243;28;20417;-87
2022/02/18 00:11:43;;;;;;;19.73;4.43;;;10.50;75.90;;;;;;4997714;28;20178;-89
2022/02/18 00:14:09;;;;;;;32.20;5.20;;;10.50;76.00;;;;;;5002519;28;20206;-89
2022/02/18 00:16:35;;;;;;;23.80;4.53;;;10.50;76.10;;;;;;5017190;28;20558;-89
2022/02/18 00:19:01;;;;;;;22.30;5.63;;;10.50;76.20;;;;;;5035679;28;20258;-89
2022/02/18 00:21:26;;;;;;;21.33;4.93;;;10.60;76.30;;;;;;5018145;28;20178;-88
2022/02/18 00:23:52;;;;;;;28.27;4.93;;;10.80;76.00;;;;;;5036189;28;20464;-89
2022/02/18 00:26:18;;;;;;;22.60;4.57;;;10.80;75.60;;;;;;5019480;28;20184;-89
2022/02/18 00:28:45;;;;;;;10.27;4.27;;;10.70;75.70;;;;;;5029183;28;20188;-89
2022/02/18 00:31:12;;;;;;;21.80;5.07;;;10.70;76.00;;;;;;5048040;28;20214;-88
2022/02/18 00:33:38;;;;;;;21.52;4.85;;;10.80;75.60;;;;;;5037064;28;20202;-88
2022/02/18 00:36:04;;;;;;;33.60;5.53;;;10.70;75.60;;;;;;5019600;28;20587;-89
2022/02/18 00:38:30;;;;;;;30.67;5.77;;;10.70;75.90;;;;;;5023900;28;20925;-88
2022/02/18 00:40:55;;;;;;;24.60;6.27;;;10.70;76.20;;;;;;5024276;28;20421;-89
2022/02/18 00:43:21;;;;;;;27.30;5.27;;;10.70;76.20;;;;;;5035232;28;20836;-86
2022/02/18 00:45:48;;;;;;;24.93;5.80;;;10.80;76.20;;;;;;5034757;28;20178;-88
2022/02/18 00:48:14;;;;;;;40.92;5.18;;;10.70;76.30;;;;;;5017504;28;20237;-88
2022/02/18 00:50:40;;;;;;;26.45;5.45;;;10.70;76.40;;;;;;5001419;28;20186;-88
2022/02/18 00:53:06;;;;;;;23.10;4.97;;;10.80;76.40;;;;;;5001930;28;20225;-88
2022/02/18 00:55:32;;;;;;;30.20;6.40;;;10.60;76.50;;;;;;4997280;28;20911;-88
2022/02/18 00:57:58;;;;;;;35.63;5.50;;;10.60;76.90;;;;;;4997083;28;20189;-88
2022/02/18 01:00:24;;;;;;;40.10;6.10;;;10.60;77.10;;;;;;5014847;28;20182;-86
2022/02/18 01:02:49;;;;;;;30.77;6.10;;;10.70;77.40;;;;;;5001281;28;20584;-88
2022/02/18 01:05:15;;;;;;;20.23;4.40;;;10.70;77.30;;;;;;5028388;28;20175;-89
2022/02/18 01:07:42;;;;;;;32.03;5.30;;;10.70;77.30;;;;;;5024828;28;20418;-89
2022/02/18 01:10:10;;;;;;;23.77;5.05;;;10.80;77.10;;;;;;5022733;28;20417;-87
2022/02/18 01:12:36;;;;;;;34.40;5.63;;;10.90;77.00;;;;;;5021739;28;20200;-89
2022/02/18 01:15:02;;;;;;;21.80;5.28;;;10.70;77.20;;;;;;5040325;28;20745;-89
2022/02/18 01:17:28;;;;;;;29.80;4.72;;;10.80;77.70;;;;;;5042878;28;20208;-88
2022/02/18 01:19:54;;;;;;;24.27;5.43;;;10.80;77.00;;;;;;5021815;28;20182;-89
2022/02/18 01:22:20;;;;;;;28.83;6.67;;;10.80;77.20;;;;;;5005223;28;20481;-88
2022/02/18 01:24:45;;;;;;;32.83;6.00;;;10.70;77.20;;;;;;5021546;28;20817;-89
2022/02/18 01:27:11;;;;;;;24.43;6.00;;;10.80;77.40;;;;;;5039247;28;20201;-88
2022/02/18 01:29:39;;;;;;;39.17;7.90;;;10.80;77.40;;;;;;5019798;28;20185;-88
2022/02/18 01:32:09;;;;;;;42.42;6.28;;;10.60;77.40;;;;;;5038220;28;20170;-86
2022/02/18 01:34:35;;;;;;;22.08;5.47;;;10.70;77.70;;;;;;5019794;28;20208;-88
2022/02/18 01:37:01;;;;;;;23.15;5.28;;;10.90;77.40;;;;;;5037639;28;20177;-88
2022/02/18 01:39:27;;;;;;;23.35;4.40;;;10.80;77.20;;;;;;5017959;28;20191;-88
2022/02/18 01:41:53;;;;;;;27.60;5.17;;;10.80;77.40;;;;;;5000195;28;20178;-89
2022/02/18 01:44:33;;;;;;;28.10;5.00;;;10.80;77.50;;;;;;5017465;28;20858;-89
2022/02/18 01:46:59;;;;;;;22.13;5.05;;;10.80;77.60;;;;;;5017676;28;20179;-88
2022/02/18 01:49:25;;;;;;;31.00;5.07;;;10.70;77.50;;;;;;5017784;28;20232;-88
2022/02/18 01:51:50;;;;;;;30.67;4.53;;;10.80;77.50;;;;;;5000068;28;20426;-88
2022/02/18 01:54:16;;;;;;;30.50;5.97;;;10.80;77.40;;;;;;5001378;28;20287;-88
2022/02/18 01:56:42;;;;;;;21.97;5.27;;;10.80;77.40;;;;;;5000034;28;20254;-87
2022/02/18 01:59:08;;;;;;;31.27;5.90;;;10.90;77.10;;;;;;4999787;28;20239;-88
2022/02/18 02:01:33;;;;;;;27.80;6.10;;;10.80;77.00;;;;;;4999900;28;20179;-89
2022/02/18 02:03:59;;;;;;;27.33;4.97;;;10.90;77.30;;;;;;4999365;28;20686;-89
2022/02/18 02:06:26;;;;;;;29.60;6.37;;;10.90;77.00;;;;;;4999783;28;20536;-88
2022/02/18 02:08:51;;;;;;;29.25;7.18;;;10.90;76.90;;;;;;4999528;28;20579;-89
2022/02/18 02:11:17;;;;;;;40.50;6.13;;;10.80;76.70;;;;;;5016863;28;20202;-88
2022/02/18 02:13:45;;;;;;;35.80;5.20;;;10.60;77.00;;;;;;4998081;28;20902;-87
2022/02/18 02:16:15;;;;;;;35.05;5.93;;;10.60;77.50;;;;;;5019924;28;20490;-88
2022/02/18 02:18:41;;;;;;;40.17;6.50;;;10.60;77.40;;;;;;5018139;28;20189;-89
2022/02/18 02:21:10;;;;;;;29.27;5.32;;;10.70;77.50;;;;;;5029999;28;20189;-88
2022/02/18 02:23:36;;;;;;;32.88;6.15;;;10.90;77.20;;;;;;5015790;28;20214;-89
2022/02/18 02:26:02;;;;;;;32.97;6.67;;;11.00;76.80;;;;;;5000405;28;20241;-89
2022/02/18 02:28:28;;;;;;;33.80;7.10;;;10.80;76.40;;;;;;5017375;28;20432;-89
2022/02/18 02:30:54;;;;;;;38.13;6.23;;;10.30;77.10;;;;;;5037099;28;20420;-88
2022/02/18 02:33:20;;;;;;;33.65;6.60;;;10.20;78.00;;;;;;5038827;28;20197;-88
2022/02/18 02:35:47;;;;;;;21.63;6.25;;;10.10;78.70;;;;;;5020837;28;20280;-89
2022/02/18 02:38:13;;;;;;;42.22;6.90;;;10.10;79.10;;;;;;5019348;28;20174;-89
2022/02/18 02:40:38;;;;;;;19.57;5.13;;;9.90;79.30;;;;;;5019205;28;20216;-89
2022/02/18 02:43:04;;;;;;;20.20;5.30;;;9.80;79.90;;;;;;5020134;28;20235;-89
2022/02/18 02:45:30;;;;;;;31.97;5.40;;;9.90;80.10;;;;;;5023441;28;20181;-89
2022/02/18 02:47:56;;;;;;;28.23;5.50;;;10.00;79.90;;;;;;5007886;28;20663;-87
2022/02/18 02:50:21;;;;;;;18.10;4.10;;;9.90;79.90;;;;;;5001553;28;20228;-88
2022/02/18 02:52:48;;;;;;;24.57;5.07;;;9.90;79.70;;;;;;4998533;28;20690;-89
2022/02/18 02:55:13;;;;;;;38.17;4.90;;;9.80;79.80;;;;;;5015496;28;20209;-89
2022/02/18 02:57:46;;;;;;;21.10;5.03;;;9.70;80.00;;;;;;5018756;28;20589;-89
2022/02/18 03:00:13;;;;;;;23.20;4.88;;;9.70;80.20;;;;;;5018293;28;20443;-88
2022/02/18 03:02:39;;;;;;;14.38;4.57;;;9.70;80.10;;;;;;5017610;28;20206;-89
2022/02/18 03:05:06;;;;;;;29.48;6.57;;;9.90;80.10;;;;;;5018201;28;20185;-89
2022/02/18 03:07:32;;;;;;;23.52;4.63;;;9.80;79.40;;;;;;5036223;28;20173;-89
2022/02/18 03:09:58;;;;;;;13.93;4.20;;;9.80;79.30;;;;;;5018548;28;20639;-86
2022/02/18 03:12:24;;;;;;;27.77;5.57;;;9.90;79.30;;;;;;5018323;28;20420;-84
2022/02/18 03:14:50;;;;;;;22.53;4.97;;;9.80;78.90;;;;;;5018244;28;20594;-89
2022/02/18 03:17:16;;;;;;;21.03;4.97;;;9.70;78.70;;;;;;5018334;28;20425;-89
2022/02/18 03:19:42;;;;;;;21.17;3.90;;;9.80;78.90;;;;;;5017889;28;20413;-89
2022/02/18 03:22:07;;;;;;;27.57;4.13;;;10.00;78.70;;;;;;5018498;28;20192;-89
2022/02/18 03:24:34;;;;;;;28.87;5.20;;;10.00;78.00;;;;;;5035917;28;20193;-89
2022/02/18 03:27:01;;;;;;;27.33;4.78;;;9.80;77.60;;;;;;5018114;28;20423;-89
2022/02/18 03:29:26;;;;;;;18.50;3.92;;;9.70;77.90;;;;;;5018553;28;20177;-89
2022/02/18 03:31:53;;;;;;;24.40;4.53;;;9.60;78.30;;;;;;5018858;28;20180;-90
2022/02/18 03:34:20;;;;;;;27.10;6.85;;;9.50;78.60;;;;;;5018044;28;20194;-89
2022/02/18 03:36:46;;;;;;;50.22;6.20;;;9.50;78.60;;;;;;5035567;28;20188;-89
2022/02/18 03:39:11;;;;;;;27.88;5.68;;;9.50;78.60;;;;;;5036305;28;20173;-89
2022/02/18 03:41:37;;;;;;;28.20;4.90;;;9.50;78.60;;;;;;5018082;28;20186;-89
2022/02/18 03:44:06;;;;;;;26.50;5.30;;;9.50;78.60;;;;;;5017620;28;20308;-89
2022/02/18 03:46:33;;;;;;;19.67;4.10;;;9.60;78.60;;;;;;5019395;28;20181;-89
2022/02/18 03:48:58;;;;;;;29.63;5.82;;;9.60;78.50;;;;;;5023908;28;20182;-89
2022/02/18 03:51:25;;;;;;;20.93;5.33;;;9.50;78.40;;;;;;5020660;28;20181;-89
2022/02/18 03:53:51;;;;;;;33.08;7.75;;;9.40;78.00;;;;;;5041416;28;20206;-89
2022/02/18 03:56:18;;;;;;;32.40;5.65;;;9.40;78.00;;;;;;5014786;28;20217;-88
2022/02/18 03:58:44;;;;;;;21.92;5.03;;;9.50;78.00;;;;;;5006091;28;20243;-87
2022/02/18 04:01:10;;;;;;;17.92;6.20;;;9.50;77.80;;;;;;5031344;28;20309;-87
2022/02/18 04:03:35;;;;;;;29.33;5.10;;;9.60;77.80;;;;;;5004712;28;20684;-89
2022/02/18 04:06:01;;;;;;;11.80;5.00;;;9.60;77.70;;;;;;5016621;28;20166;-88
2022/02/18 04:08:27;;;;;;;18.53;4.43;;;9.60;77.40;;;;;;5000368;28;20654;-88
2022/02/18 04:10:53;;;;;;;19.83;5.40;;;9.60;77.40;;;;;;5024136;28;20167;-88
2022/02/18 04:13:18;;;;;;;20.57;5.43;;;9.60;77.20;;;;;;5003665;28;20198;-86
2022/02/18 04:15:45;;;;;;;19.63;4.03;;;9.60;77.20;;;;;;5011735;28;20432;-87
2022/02/18 04:18:11;;;;;;;22.70;4.78;;;9.60;77.10;;;;;;5034563;28;20448;-88
2022/02/18 04:20:37;;;;;;;21.37;4.80;;;9.60;77.00;;;;;;5014376;28;20197;-89
2022/02/18 04:23:02;;;;;;;23.90;4.90;;;9.70;77.30;;;;;;4997520;28;20210;-87
2022/02/18 04:25:28;;;;;;;26.77;5.37;;;9.60;77.20;;;;;;4981449;28;20418;-89
2022/02/18 04:28:00;;;;;;;18.53;5.10;;;9.60;77.10;;;;;;4998008;28;20198;-89
2022/02/18 04:30:25;;;;;;;21.63;4.78;;;9.50;77.10;;;;;;4998327;28;20179;-89
2022/02/18 04:32:52;;;;;;;19.73;3.87;;;9.50;77.10;;;;;;4999383;28;20286;-88
2022/02/18 04:35:18;;;;;;;10.65;3.20;;;9.50;77.10;;;;;;4998281;28;21037;-88
2022/02/18 04:37:44;;;;;;;24.67;4.15;;;9.50;77.00;;;;;;5019655;28;20550;-89
2022/02/18 04:40:11;;;;;;;17.42;3.80;;;9.50;77.00;;;;;;5020731;28;20245;-89
2022/02/18 04:42:37;;;;;;;15.65;4.32;;;9.50;76.80;;;;;;5037877;28;20256;-86
2022/02/18 04:45:03;;;;;;;28.37;3.57;;;9.40;76.60;;;;;;5040161;28;20177;-89
2022/02/18 04:47:29;;;;;;;29.48;4.90;;;9.40;76.60;;;;;;5021849;28;20181;-87
2022/02/18 04:49:55;;;;;;;18.27;3.67;;;9.40;77.10;;;;;;5019046;28;20174;-89
2022/02/18 04:52:21;;;;;;;27.57;5.13;;;9.40;76.60;;;;;;5020556;28;20550;-89
2022/02/18 04:54:46;;;;;;;17.50;3.83;;;9.40;77.20;;;;;;5038515;28;20577;-88
2022/02/18 04:57:12;;;;;;;18.60;3.33;;;9.40;76.40;;;;;;5039420;28;20415;-88
2022/02/18 04:59:38;;;;;;;21.13;3.97;;;9.40;76.30;;;;;;5040040;28;20537;-88
2022/02/18 05:02:04;;;;;;;24.25;4.50;;;9.40;76.20;;;;;;5041607;28;20178;-87
2022/02/18 05:04:34;;;;;;;24.95;3.72;;;9.50;76.10;;;;;;5023234;28;20214;-89
2022/02/18 05:07:00;;;;;;;13.07;3.95;;;9.50;76.10;;;;;;5039343;28;20638;-88
2022/02/18 05:09:25;;;;;;;13.47;3.40;;;9.40;76.10;;;;;;5021579;28;20270;-89
2022/02/18 05:11:51;;;;;;;8.73;3.77;;;9.40;76.10;;;;;;5041175;28;20185;-89
2022/02/18 05:14:17;;;;;;;12.93;3.53;;;9.50;76.50;;;;;;5020207;28;20263;-88
2022/02/18 05:16:43;;;;;;;15.73;3.60;;;9.50;76.60;;;;;;5020187;28;20189;-88
2022/02/18 05:19:09;;;;;;;15.25;4.40;;;9.50;76.50;;;;;;5036897;28;20189;-89
2022/02/18 05:21:37;;;;;;;22.95;3.47;;;9.70;76.50;;;;;;5037519;28;20185;-88
2022/02/18 05:24:04;;;;;;;22.65;4.63;;;9.80;76.20;;;;;;5019380;28;20214;-89
2022/02/18 05:26:30;;;;;;;15.35;3.60;;;9.80;76.60;;;;;;5038471;28;20174;-89
2022/02/18 05:28:56;;;;;;;26.50;3.70;;;9.80;76.80;;;;;;5038947;28;20201;-88
2022/02/18 05:31:22;;;;;;;13.03;3.27;;;9.80;77.30;;;;;;5022164;28;20444;-89
2022/02/18 05:33:48;;;;;;;13.73;4.20;;;9.90;77.40;;;;;;5022144;28;20455;-89
2022/02/18 05:36:13;;;;;;;12.53;3.77;;;9.90;77.50;;;;;;5020981;28;20186;-90
2022/02/18 05:38:43;;;;;;;28.57;4.17;;;9.80;78.60;;;;;;5039070;28;20929;-88
2022/02/18 05:41:10;;;;;;;20.40;3.13;;;9.80;80.20;;;;;;5021572;28;20182;-88
2022/02/18 05:43:36;;;;;;;22.67;3.60;;;10.10;81.10;;;;;;5040871;28;20228;-88
2022/02/18 05:46:01;;;;;;;21.33;3.30;;;10.20;80.70;;;;;;5020164;28;20170;-87
2022/02/18 05:48:27;;;;;;;23.97;4.43;;;10.20;80.50;;;;;;5020090;28;20413;-89
2022/02/18 05:50:53;;;;;;;20.23;4.53;;;9.80;81.60;;;;;;5038087;28;20252;-89
2022/02/18 05:53:19;;;;;;;13.13;3.33;;;9.80;82.10;;;;;;5019830;28;20572;-88
2022/02/18 05:55:45;;;;;;;15.27;4.18;;;9.90;82.60;;;;;;5037946;28;20181;-88
2022/02/18 05:58:11;;;;;;;19.58;5.10;;;10.10;82.60;;;;;;5021511;28;20273;-89
2022/02/18 06:00:36;;;;;;;13.53;3.83;;;9.80;83.00;;;;;;5037728;28;20205;-88
2022/02/18 06:03:02;;;;;;;28.57;4.90;;;9.90;83.60;;;;;;5018465;28;20209;-88
2022/02/18 06:05:28;;;;;;;15.43;4.33;;;10.10;83.90;;;;;;5018578;28;20178;-88
2022/02/18 06:07:53;;;;;;;23.60;4.87;;;10.00;83.80;;;;;;5036754;28;20331;-89
2022/02/18 06:10:19;;;;;;;30.83;7.70;;;10.00;84.10;;;;;;5019215;28;20224;-89
2022/02/18 06:12:45;;;;;;;19.13;4.23;;;10.00;85.00;;;;;;5018458;28;20204;-88
2022/02/18 06:15:10;;;;;;;19.00;3.90;;;10.00;85.80;;;;;;5018637;28;20169;-88
2022/02/18 06:17:38;;;;;;;9.27;3.90;;;9.90;86.80;;;;;;5019309;28;20180;-89
2022/02/18 06:20:09;;;;;;;10.43;4.15;;;9.80;87.70;;;;;;5020112;28;20180;-89
2022/02/18 06:22:36;;;;;;;15.82;4.75;;;9.60;88.80;;;;;;4999654;28;20218;-89
2022/02/18 06:25:06;;;;;;;16.10;4.25;;;9.50;89.80;;;;;;4999251;28;20252;-88
2022/02/18 06:27:32;;;;;;;13.85;4.28;;;9.60;90.20;;;;;;4983394;28;20272;-89
2022/02/18 06:29:57;;;;;;;27.90;5.17;;;9.80;90.40;;;;;;4999537;28;20178;-89
2022/02/18 06:32:23;;;;;;;27.23;5.60;;;9.80;90.20;;;;;;5013741;28;20196;-90
2022/02/18 06:34:50;;;;;;;14.37;5.20;;;9.70;90.40;;;;;;5025200;28;20517;-90
2022/02/18 06:37:16;;;;;;;14.52;4.85;;;9.70;91.50;;;;;;5018434;28;20937;-90
2022/02/18 06:39:42;;;;;;;15.60;3.80;;;9.80;90.70;;;;;;5020307;28;20182;-89
2022/02/18 06:42:09;;;;;;;12.18;5.50;;;10.10;90.70;;;;;;5040938;28;20416;-90
2022/02/18 06:44:34;;;;;;;15.27;5.68;;;10.10;90.20;;;;;;5003094;28;20199;-89
2022/02/18 06:47:00;;;;;;;17.63;5.40;;;10.10;90.00;;;;;;5017336;28;20174;-90
2022/02/18 06:49:26;;;;;;;15.57;4.80;;;10.20;89.80;;;;;;4998859;28;20593;-89
2022/02/18 06:51:55;;;;;;;11.50;4.70;;;10.10;89.60;;;;;;4998929;28;20175;-89
2022/02/18 06:54:33;;;;;;;10.68;4.88;;;10.10;89.90;;;;;;5008758;28;20892;-89
2022/02/18 06:57:00;;;;;;;12.00;5.10;;;10.20;90.10;;;;;;5018874;28;20269;-89
2022/02/18 06:59:27;;;;;;;14.57;5.68;;;10.20;90.10;;;;;;5036906;28;20223;-89
2022/02/18 07:01:56;;;;;;;13.75;5.32;;;10.20;90.30;;;;;;5020333;28;20177;-88
2022/02/18 07:04:25;;;;;;;17.70;5.53;;;10.10;90.50;;;;;;5000304;28;20206;-89
2022/02/18 07:06:51;;;;;;;16.63;5.05;;;10.30;90.80;;;;;;4998357;28;20178;-88
2022/02/18 07:09:17;;;;;;;11.30;4.88;;;10.20;90.80;;;;;;5015560;28;20181;-89
2022/02/18 07:11:43;;;;;;;15.00;5.30;;;10.40;91.10;;;;;;5039303;28;20177;-89
2022/02/18 07:14:09;;;;;;;19.63;5.22;;;10.40;90.80;;;;;;5017463;28;20194;-89
2022/02/18 07:16:38;;;;;;;17.33;5.28;;;10.30;90.90;;;;;;5017680;28;20186;-88
2022/02/18 07:19:04;;;;;;;14.32;4.80;;;10.20;90.70;;;;;;5024676;28;20183;-89
2022/02/18 07:21:30;;;;;;;10.43;5.68;;;10.40;90.60;;;;;;5020541;28;20212;-88
2022/02/18 07:23:56;;;;;;;9.80;4.37;;;10.60;90.50;;;;;;5015951;28;20233;-89
2022/02/18 07:26:21;;;;;;;11.03;3.83;;;10.60;90.10;;;;;;5018247;28;20424;-89
2022/02/18 07:28:47;;;;;;;13.90;4.83;;;10.70;89.90;;;;;;5018966;28;20174;-88
2022/02/18 07:31:13;;;;;;;9.50;3.70;;;10.80;89.60;;;;;;5040463;28;20546;-88
2022/02/18 07:33:38;;;;;;;15.87;5.10;;;10.80;89.20;;;;;;5022123;28;20198;-89
2022/02/18 07:36:04;;;;;;;12.33;3.93;;;10.70;89.10;;;;;;5019263;28;20212;-88
2022/02/18 07:38:30;;;;;;;9.90;3.10;;;10.70;89.40;;;;;;5018038;28;20187;-88
2022/02/18 07:40:56;;;;;;;10.07;3.83;;;10.70;89.30;;;;;;5036547;28;20173;-89
2022/02/18 07:43:21;;;;;;;8.57;3.50;;;10.90;89.10;;;;;;5023214;28;20634;-89
2022/02/18 07:45:47;;;;;;;9.43;2.73;;;10.90;88.80;;;;;;5017269;28;20177;-90
2022/02/18 07:48:13;;;;;;;6.30;2.73;;;11.00;88.60;;;;;;5017952;28;20234;-89
2022/02/18 07:50:38;;;;;;;9.90;2.97;;;10.90;88.50;;;;;;5017220;28;20455;-89
2022/02/18 07:53:04;;;;;;;7.60;2.50;;;11.10;88.60;;;;;;5016004;28;20210;-87
2022/02/18 07:55:30;;;;;;;7.67;3.50;;;11.20;88.10;;;;;;5017156;28;20208;-89
2022/02/18 07:57:55;;;;;;;3.47;2.47;;;11.30;87.80;;;;;;5035861;28;20197;-89
2022/02/18 08:00:21;;;;;;;14.13;3.30;;;11.30;87.70;;;;;;5026876;28;21029;-89
2022/02/18 08:02:47;;;;;;;4.07;2.30;;;11.40;87.60;;;;;;5015159;28;20194;-89
2022/02/18 08:05:15;;;;;;;8.50;2.40;;;11.50;87.30;;;;;;4998010;28;20514;-89
2022/02/18 08:07:40;;;;;;;3.22;2.30;;;11.60;86.90;;;;;;4997927;28;20487;-89
2022/02/18 08:10:07;;;;;;;6.03;2.03;;;11.50;86.70;;;;;;4998089;28;20666;-89
2022/02/18 08:12:32;;;;;;;3.70;1.55;;;11.50;86.80;;;;;;4991754;28;20182;-89
2022/02/18 08:14:58;;;;;;;4.70;2.50;;;11.80;86.70;;;;;;5007701;28;20178;-89
2022/02/18 08:17:24;;;;;;;4.90;2.40;;;11.70;86.40;;;;;;5031789;28;20179;-89
2022/02/18 08:19:49;;;;;;;5.80;2.50;;;11.90;86.30;;;;;;5010294;28;20639;-89
2022/02/18 08:22:17;;;;;;;6.30;1.97;;;12.20;86.00;;;;;;5021171;28;20209;-89
2022/02/18 08:24:51;;;;;;;4.50;1.50;;;12.10;85.20;;;;;;5009821;28;20655;-89
2022/02/18 08:27:17;;;;;;;1.58;1.48;;;12.00;85.10;;;;;;5013895;28;20175;-87
2022/02/18 08:29:43;;;;;;;2.23;1.57;;;12.00;85.30;;;;;;5022925;28;20232;-89
2022/02/18 08:32:08;;;;;;;5.60;1.63;;;12.20;85.20;;;;;;5035286;28;20178;-89
2022/02/18 08:34:34;;;;;;;4.70;1.40;;;12.10;84.80;;;;;;5024322;28;20577;-89
2022/02/18 08:37:03;;;;;;;1.70;1.30;;;12.20;84.90;;;;;;5026935;28;20170;-89
2022/02/18 08:39:29;;;;;;;7.95;1.40;;;12.30;84.50;;;;;;5047470;28;20170;-90
2022/02/18 08:41:55;;;;;;;1.30;1.20;;;12.30;84.40;;;;;;5028907;28;20197;-90
2022/02/18 08:44:21;;;;;;;3.03;1.43;;;12.20;84.10;;;;;;5019801;28;20460;-90
2022/02/18 08:46:47;;;;;;;1.70;1.15;;;12.40;84.20;;;;;;5022807;28;20503;-91
2022/02/18 08:49:13;;;;;;;2.40;1.10;;;12.20;83.90;;;;;;5011856;28;20178;-90
2022/02/18 08:51:39;;;;;;;2.03;1.10;;;12.30;84.00;;;;;;5038997;28;20412;-90
2022/02/18 08:54:06;;;;;;;3.43;1.60;;;12.50;84.10;;;;;;5038018;28;20429;-90
2022/02/18 08:56:32;;;;;;;2.55;1.25;;;12.60;83.30;;;;;;5004846;28;20429;-90
2022/02/18 08:58:58;;;;;;;4.18;1.23;;;12.70;83.20;;;;;;5001424;28;20183;-90
2022/02/18 09:01:27;;;;;;;2.50;1.30;;;12.70;82.50;;;;;;5011179;28;21173;-90
2022/02/18 09:03:53;;;;;;;3.80;1.10;;;12.80;82.20;;;;;;5016958;28;20987;-90
2022/02/18 09:06:19;;;;;;;1.63;0.90;;;12.90;82.00;;;;;;5035646;28;20178;-90
2022/02/18 09:08:46;;;;;;;1.30;1.20;;;12.90;82.00;;;;;;5009741;28;20436;-90
2022/02/18 09:11:11;;;;;;;2.80;1.20;;;12.90;81.70;;;;;;5002864;28;20182;-91
2022/02/18 09:13:37;;;;;;;4.20;0.90;;;12.90;81.50;;;;;;5032391;28;20312;-91
2022/02/18 09:16:03;;;;;;;2.00;1.03;;;12.90;81.30;;;;;;5017025;28;20509;-90
2022/02/18 09:18:29;;;;;;;0.90;0.90;;;12.90;81.30;;;;;;5006227;28;20216;-89
2022/02/18 09:20:55;;;;;;;1.10;1.00;;;12.80;81.40;;;;;;5008134;28;20425;-91
2022/02/18 09:23:20;;;;;;;1.40;1.00;;;12.80;81.60;;;;;;5027967;28;20275;-91
2022/02/18 09:25:47;;;;;;;1.90;0.90;;;12.90;82.10;;;;;;5047438;28;20182;-90
2022/02/18 09:28:13;;;;;;;1.08;0.85;;;12.90;81.40;;;;;;5023469;28;20221;-92
2022/02/18 09:30:48;;;;;;;2.97;1.48;;;12.90;81.30;;;;;;5027593;28;20181;-91
2022/02/18 09:33:15;;;;;;;1.95;0.93;;;13.10;81.10;;;;;;5025695;28;20212;-91
2022/02/18 09:35:43;;;;;;;1.55;1.00;;;13.10;80.60;;;;;;5034816;28;20237;-92
2022/02/18 09:38:10;;;;;;;1.20;1.00;;;13.20;80.20;;;;;;5006008;28;20182;-91
2022/02/18 09:40:36;;;;;;;1.38;0.90;;;13.00;80.00;;;;;;5013376;28;20190;-90
2022/02/18 09:43:03;;;;;;;1.73;0.85;;;13.00;80.30;;;;;;5019763;28;20304;-91
2022/02/18 09:45:29;;;;;;;1.50;0.88;;;12.90;80.50;;;;;;5017400;28;20618;-92
2022/02/18 09:47:56;;;;;;;1.30;1.00;;;13.10;80.50;;;;;;5013960;28;20186;-91
2022/02/18 09:50:23;;;;;;;1.27;0.80;;;13.10;80.40;;;;;;5015168;28;20941;-92
2022/02/18 09:52:49;;;;;;;4.68;1.02;;;12.90;80.40;;;;;;5020137;28;20193;-91
2022/02/18 09:55:15;;;;;;;1.60;1.00;;;13.00;80.20;;;;;;5021549;28;20187;-92
2022/02/18 09:57:43;;;;;;;2.90;1.00;;;13.20;80.20;;;;;;5042139;28;20197;-91
2022/02/18 10:00:13;;;;;;;1.10;0.93;;;13.30;79.70;;;;;;5026416;28;20178;-90
2022/02/18 10:02:40;;;;;;;0.80;0.80;;;13.20;79.60;;;;;;5027513;28;20228;-89
2022/02/18 10:05:06;;;;;;;1.00;0.90;;;13.20;79.40;;;;;;5028111;28;20189;-89
2022/02/18 10:07:33;;;;;;;0.75;0.75;;;13.20;79.30;;;;;;5026205;28;20209;-89
2022/02/18 10:10:12;;;;;;;1.83;1.00;;;13.40;79.20;;;;;;5022147;28;20209;-91
2022/02/18 10:12:39;;;;;;;1.30;1.20;;;13.50;78.80;;;;;;5020286;28;20177;-90
2022/02/18 10:15:11;;;;;;;1.70;0.60;;;13.30;79.10;;;;;;5020924;28;20173;-90
2022/02/18 10:17:47;;;;;;;1.10;1.00;;;13.50;79.50;;;;;;5004843;28;20175;-87
2022/02/18 10:20:14;;;;;;;1.52;0.85;;;13.30;79.50;;;;;;5020370;28;20216;-91
2022/02/18 10:23:13;;;;;;;3.60;1.10;;;13.20;79.90;;;;;;5019358;28;20283;-90
2022/02/18 10:25:42;;;;;;;1.27;1.00;;;13.20;79.90;;;;;;5016213;28;20205;-90
2022/02/18 10:28:11;;;;;;;3.15;1.00;;;13.30;80.00;;;;;;5012975;28;20182;-90
2022/02/18 10:31:01;;;;;;;1.00;0.90;;;13.50;79.90;;;;;;4998095;28;20719;-90
2022/02/18 10:33:27;;;;;;;1.10;0.95;;;13.40;79.50;;;;;;5025917;28;20198;-91
2022/02/18 10:36:04;;;;;;;1.00;0.70;;;13.20;80.00;;;;;;5005568;28;20668;-91
2022/02/18 10:38:36;;;;;;;1.80;0.93;;;13.30;80.10;;;;;;4999392;28;20418;-90
2022/02/18 10:41:21;;;;;;;1.70;0.80;;;13.30;79.90;;;;;;5025002;28;20186;-90
2022/02/18 10:43:46;;;;;;;3.83;0.90;;;13.40;80.00;;;;;;5016962;28;20552;-91
2022/02/18 10:46:13;;;;;;;1.63;0.90;;;13.60;79.50;;;;;;5024195;28;20181;-90
2022/02/18 10:48:50;;;;;;;1.80;0.90;;;13.60;78.90;;;;;;5020646;28;20237;-89
2022/02/18 10:51:24;;;;;;;1.70;0.82;;;13.40;78.80;;;;;;5038122;28;20177;-89
2022/02/18 10:53:51;;;;;;;1.00;0.90;;;13.40;79.50;;;;;;5021279;28;20213;-90
2022/02/18 10:56:28;;;;;;;3.28;0.80;;;13.30;79.50;;;;;;5022481;28;20177;-89
2022/02/18 10:58:54;;;;;;;0.88;0.88;;;13.40;79.20;;;;;;5017921;28;20241;-89
2022/02/18 11:01:24;;;;;;;1.00;0.90;;;13.30;79.40;;;;;;5025623;28;20248;-89
2022/02/18 11:04:01;;;;;;;2.13;1.35;;;13.50;79.20;;;;;;5010082;28;20501;-90
2022/02/18 11:06:32;;;;;;;0.90;0.80;;;13.50;78.80;;;;;;5006322;28;20234;-89
2022/02/18 11:09:04;;;;;;;1.10;0.80;;;13.60;78.40;;;;;;5021879;28;20174;-89
2022/02/18 11:11:43;;;;;;;2.75;1.00;;;13.50;78.50;;;;;;5014188;28;20216;-90
2022/02/18 11:14:12;;;;;;;1.27;1.00;;;13.60;78.30;;;;;;5018091;28;20201;-89
2022/02/18 11:16:42;;;;;;;0.82;0.70;;;13.60;78.70;;;;;;5035535;28;20262;-89
2022/02/18 11:19:08;;;;;;;1.60;0.90;;;13.60;78.80;;;;;;5006029;28;20188;-89
2022/02/18 11:21:34;;;;;;;2.25;0.85;;;13.40;79.00;;;;;;5019400;28;20595;-89
2022/02/18 11:24:02;;;;;;;1.10;0.90;;;13.60;79.30;;;;;;5019338;28;20209;-89
2022/02/18 11:26:30;;;;;;;2.85;1.00;;;13.40;79.50;;;;;;5020796;28;20178;-89
2022/02/18 11:28:57;;;;;;;0.93;0.80;;;13.50;79.90;;;;;;5019989;28;20321;-90
2022/02/18 11:31:26;;;;;;;1.50;1.25;;;13.40;80.10;;;;;;5020085;28;20178;-89
2022/02/18 11:34:17;;;;;;;1.00;0.90;;;13.40;80.40;;;;;;5019357;28;20571;-87
2022/02/18 11:36:49;;;;;;;1.63;0.90;;;13.30;81.00;;;;;;5038507;28;20274;-89
2022/02/18 11:39:33;;;;;;;1.52;1.10;;;13.40;81.70;;;;;;5008676;28;20339;-89
2022/02/18 11:42:38;;;;;;;1.23;0.88;;;13.60;81.60;;;;;;5019174;28;20189;-90
2022/02/18 11:45:14;;;;;;;1.00;0.90;;;13.70;81.90;;;;;;5027552;28;20185;-91
2022/02/18 11:47:43;;;;;;;1.50;0.70;;;13.60;81.80;;;;;;5013549;28;20197;-87
2022/02/18 11:50:15;;;;;;;1.60;1.10;;;13.70;82.00;;;;;;4998712;28;20193;-90
2022/02/18 11:52:49;;;;;;;1.42;1.08;;;13.70;82.30;;;;;;5037024;28;20193;-89
2022/02/18 11:55:35;;;;;;;1.10;1.00;;;13.60;82.50;;;;;;5022165;28;20231;-90
2022/02/18 11:58:07;;;;;;;1.23;1.13;;;13.40;83.00;;;;;;5004074;28;20197;-88
2022/02/18 12:00:38;;;;;;;2.05;1.00;;;13.30;83.50;;;;;;5023122;28;20639;-90
2022/02/18 12:03:17;;;;;;;3.92;0.82;;;13.40;83.90;;;;;;5010420;28;20285;-90
2022/02/18 12:06:12;;;;;;;2.15;1.00;;;13.30;84.60;;;;;;5009531;28;20178;-89
2022/02/18 12:08:57;;;;;;;1.48;1.30;;;13.30;85.30;;;;;;5028301;28;20170;-89
2022/02/18 12:11:23;;;;;;;5.03;1.20;;;13.00;85.10;;;;;;5022362;28;20176;-88
2022/02/18 12:13:54;;;;;;;5.43;1.10;;;12.60;83.30;;;;;;5025519;28;20198;-89
2022/02/18 12:16:21;;;;;;;5.70;1.60;;;12.30;82.50;;;;;;5043357;28;20412;-89
2022/02/18 12:19:09;;;;;;;7.13;1.83;;;12.10;82.60;;;;;;5024199;28;20240;-89
2022/02/18 12:21:55;;;;;;;4.10;1.48;;;11.80;82.20;;;;;;5019632;28;20273;-89
2022/02/18 12:24:39;;;;;;;6.85;2.13;;;11.70;83.20;;;;;;5002755;28;20213;-89
2022/02/18 12:27:24;;;;;;;4.15;1.88;;;11.70;83.30;;;;;;5030911;28;20178;-89
2022/02/18 12:29:56;;;;;;;9.10;2.75;;;11.70;82.90;;;;;;5029905;28;20182;-88
2022/02/18 12:32:23;;;;;;;3.95;1.60;;;11.70;82.20;;;;;;5015743;28;20174;-87
2022/02/18 12:35:06;;;;;;;2.88;1.75;;;11.60;81.40;;;;;;5015152;28;20709;-88
2022/02/18 12:37:36;;;;;;;4.32;1.50;;;11.60;81.30;;;;;;5016126;28;20265;-87
2022/02/18 12:40:15;;;;;;;6.40;1.77;;;11.60;80.50;;;;;;5014260;28;20206;-89
2022/02/18 12:42:45;;;;;;;5.63;1.30;;;11.50;80.10;;;;;;5015466;28;20194;-88
2022/02/18 12:45:12;;;;;;;10.55;2.22;;;11.40;79.20;;;;;;5024209;28;20173;-89
2022/02/18 12:47:39;;;;;;;4.93;1.60;;;11.50;79.10;;;;;;5013266;28;20252;-90